ADDS METAR Data INFO
IDs: Format: Raw Decoded Include TAF

Data at: 0350 UTC 18 Oct 2017

KBFF 180253Z AUTO 36004KT 10SM CLR 09/M03 A2997 RMK AO2 SLP143 T00941033 50001
KBFF 180153Z AUTO 00000KT 10SM CLR 11/M03 A2997 RMK AO2 SLP152 T01111028
KBFF 180053Z AUTO 00000KT 10SM CLR 15/M04 A2997 RMK AO2 SLP149 T01501044
KBFF 172353Z AUTO 26006KT 10SM CLR 19/M06 A2997 RMK AO2 SLP140 T01941061 10261 20194 56011
KBFF 172253Z AUTO 29006KT 10SM CLR 25/M08 A2998 RMK AO2 SLP133 T02501078
KBFF 172153Z AUTO 27010KT 10SM CLR 26/M10 A2999 RMK AO2 SLP139 T02561100
KBFF 172053Z AUTO 26007KT 10SM CLR 26/M09 A3000 RMK AO2 SLP141 T02561089 56034
KBFF 171953Z AUTO 28009KT 10SM CLR 25/M09 A3003 RMK AO2 SLP148 T02501094
KBFF 171853Z AUTO 28011KT 10SM CLR 24/M09 A3007 RMK AO2 SLP163 T02441089
KBFF 171753Z AUTO 25005KT 10SM CLR 21/M03 A3012 RMK AO2 SLP183 T02061028 10206 21033 58016
KBFF 171653Z AUTO 28003KT 10SM CLR 16/M02 A3015 RMK AO2 SLP202 T01611017
KBFF 171553Z AUTO 00000KT 10SM CLR 11/M03 A3017 RMK AO2 SLP211 T01061028
KBFF 171453Z AUTO 00000KT 10SM CLR 07/M02 A3017 RMK AO2 SLP217 T00721017 55002
KBFF 171353Z AUTO 35004KT 10SM CLR 01/M04 A3016 RMK AO2 SLP221 T00061039
KBFF 171253Z AUTO 32003KT 10SM CLR M02/M05 A3017 RMK AO2 SLP223 T10171050
KBFF 171153Z AUTO 34005KT 10SM CLR M02/M05 A3017 RMK AO2 SLP215 T10221050 10022 21028 56001
KBFF 171053Z AUTO 26004KT 7SM CLR M01/M04 A3017 RMK AO2 SLP210 T10111044
KBFF 170953Z AUTO 33004KT 10SM CLR M01/M04 A3017 RMK AO2 SLP204 T10111039
KBFF 170853Z AUTO 34004KT 10SM CLR 00/M04 A3018 RMK AO2 SLP203 T00001039 57003
KBFF 170753Z AUTO 35007KT 10SM CLR 01/M03 A3018 RMK AO2 SLP200 T00111033
KBFF 170653Z AUTO 31004KT 10SM CLR 02/M03 A3018 RMK AO2 SLP203 T00221033 402561033
KBFF 170553Z AUTO 35003KT 10SM CLR 03/M03 A3019 RMK AO2 SLP209 T00281033 10172 20017 50003
KBFF 170453Z AUTO 34004KT 10SM CLR 03/M03 A3019 RMK AO2 SLP218 T00281028
KBFF 170353Z AUTO 17005KT 10SM CLR 06/M03 A3019 RMK AO2 SLP222 T00561028
KBFF 170253Z AUTO 02004KT 10SM CLR 06/M03 A3018 RMK AO2 SLP224 T00611028 51012
KBFF 170153Z AUTO 26003KT 10SM CLR 09/M03 A3017 RMK AO2 SLP223 T00891033
KBFF 170053Z AUTO 36008KT 10SM CLR 13/M05 A3015 RMK AO2 SLP217 T01281050
KBFF 162353Z AUTO 34008KT 10SM CLR 18/M06 A3014 RMK AO2 SLP204 T01781056 10256 20178 53005
KBFF 162253Z AUTO 33010KT 10SM CLR 20/M06 A3013 RMK AO2 SLP195 T02001056
KBFF 162153Z AUTO 31010KT 10SM CLR 23/M06 A3012 RMK AO2 SLP189 T02331061
KBFF 162053Z AUTO 29011KT 10SM CLR 24/M07 A3012 RMK AO2 SLP182 T02441072 56021
KBFF 161953Z AUTO 30012KT 10SM CLR 25/M08 A3013 RMK AO2 SLP184 T02501083
KBFF 161853Z AUTO 27010KT 10SM CLR 23/M08 A3016 RMK AO2 SLP196 T02331078
KBFF 161753Z AUTO VRB03KT 10SM CLR 19/M02 A3019 RMK AO2 SLP212 T01941017 10194 21033 58017
KBFF 161653Z AUTO 31003KT 10SM CLR 14/M01 A3021 RMK AO2 SLP226 T01441011
KBFF 161553Z AUTO VRB03KT 10SM CLR 08/00 A3023 RMK AO2 SLP242 T00830000